createdAt,value
2018-05-17T00:02:12.076Z,17.57
2018-05-17T00:04:39.548Z,17.80
2018-05-17T00:07:06.996Z,17.33
2018-05-17T00:09:34.473Z,17.03
2018-05-17T00:12:01.924Z,15.83
2018-05-17T00:14:29.388Z,16.30
2018-05-17T00:16:57.612Z,20.00
2018-05-17T00:19:25.068Z,16.97
2018-05-17T00:21:52.520Z,18.97
2018-05-17T00:24:19.977Z,18.43
2018-05-17T00:26:48.306Z,21.60
2018-05-17T00:29:15.790Z,18.53
2018-05-17T00:31:43.228Z,20.03
2018-05-17T00:34:10.689Z,19.50
2018-05-17T00:36:38.153Z,18.80
2018-05-17T00:39:05.624Z,17.00
2018-05-17T00:41:33.851Z,17.23
2018-05-17T00:44:01.305Z,17.90
2018-05-17T00:46:28.774Z,16.73
2018-05-17T00:48:56.298Z,15.93
2018-05-17T00:51:24.539Z,15.87
2018-05-17T00:53:51.987Z,15.47
2018-05-17T00:56:19.462Z,17.33
2018-05-17T00:58:46.914Z,15.53
2018-05-17T01:01:15.212Z,12.20
2018-05-17T01:03:42.661Z,9.80
2018-05-17T01:06:10.894Z,11.37
2018-05-17T01:08:38.350Z,10.67
2018-05-17T01:11:05.808Z,11.57
2018-05-17T01:13:33.273Z,14.27
2018-05-17T01:16:00.746Z,18.47
2018-05-17T01:18:28.197Z,23.30
2018-05-17T01:20:55.665Z,24.83
2018-05-17T01:23:23.121Z,26.50
2018-05-17T01:25:51.359Z,27.07
2018-05-17T01:28:18.834Z,28.17
2018-05-17T01:30:46.293Z,30.07
2018-05-17T01:33:13.861Z,35.23
2018-05-17T01:35:41.309Z,38.77
2018-05-17T01:38:20.720Z,37.73
2018-05-17T01:40:48.174Z,38.30
2018-05-17T01:43:15.636Z,38.63
2018-05-17T01:45:43.088Z,38.77
2018-05-17T01:48:10.549Z,40.50
2018-05-17T01:50:38.145Z,42.27
2018-05-17T01:53:05.753Z,44.63
2018-05-17T01:55:33.200Z,46.33
2018-05-17T01:58:00.742Z,48.60
2018-05-17T02:00:28.201Z,50.33
2018-05-17T02:02:55.669Z,48.40
2018-05-17T02:05:23.124Z,51.50
2018-05-17T02:07:50.609Z,46.47
2018-05-17T02:10:18.079Z,52.53
2018-05-17T02:12:45.550Z,51.43
2018-05-17T02:15:13.003Z,57.87
2018-05-17T02:17:40.476Z,57.00
2018-05-17T02:20:07.940Z,57.17
2018-05-17T02:22:35.408Z,54.60
2018-05-17T02:25:02.860Z,55.33
2018-05-17T02:27:31.094Z,55.33
2018-05-17T02:29:58.554Z,57.73
2018-05-17T02:32:26.024Z,54.83
2018-05-17T02:34:53.503Z,58.50
2018-05-17T02:37:20.941Z,53.57
2018-05-17T02:39:48.412Z,59.03
2018-05-17T02:42:15.874Z,58.83
2018-05-17T02:44:43.343Z,54.63
2018-05-17T02:47:10.793Z,55.80
2018-05-17T02:49:39.029Z,52.00
2018-05-17T02:52:06.484Z,53.17
2018-05-17T02:54:33.955Z,56.33
2018-05-17T02:57:01.418Z,55.50
2018-05-17T02:59:28.881Z,54.57
2018-05-17T03:01:56.337Z,47.60
2018-05-17T03:04:23.811Z,53.07
2018-05-17T03:06:51.268Z,52.77
2018-05-17T03:09:19.488Z,49.80
2018-05-17T03:11:47.039Z,45.83
2018-05-17T03:14:14.497Z,45.07
2018-05-17T03:16:42.715Z,44.47
2018-05-17T03:19:10.175Z,43.50
2018-05-17T03:21:37.622Z,46.73
2018-05-17T03:24:05.088Z,42.23
2018-05-17T03:26:33.299Z,48.77
2018-05-17T03:29:00.773Z,48.33
2018-05-17T03:31:28.219Z,47.83
2018-05-17T03:33:55.684Z,49.63
2018-05-17T03:36:23.904Z,51.37
2018-05-17T03:38:51.362Z,48.80
2018-05-17T03:41:18.888Z,54.53
2018-05-17T03:43:46.344Z,49.60
2018-05-17T03:46:13.799Z,45.00
2018-05-17T03:48:41.255Z,42.20
2018-05-17T03:51:08.716Z,43.93
2018-05-17T03:53:36.173Z,43.57
2018-05-17T03:56:03.636Z,42.07
2018-05-17T03:58:31.080Z,43.57
2018-05-17T04:01:11.214Z,38.67
2018-05-17T04:03:50.544Z,39.67
2018-05-17T04:06:29.973Z,35.10
2018-05-17T04:08:57.428Z,32.27
2018-05-17T04:11:24.901Z,35.87
2018-05-17T04:13:52.446Z,36.77
2018-05-17T04:16:20.567Z,34.77
2018-05-17T04:18:48.020Z,38.30
2018-05-17T04:21:16.247Z,30.70
2018-05-17T04:23:43.716Z,30.70
2018-05-17T04:26:11.162Z,30.93
2018-05-17T04:28:38.627Z,31.53
2018-05-17T04:31:06.096Z,34.07
2018-05-17T04:33:33.539Z,34.40
2018-05-17T04:36:01.815Z,30.37
2018-05-17T04:38:29.318Z,33.27
2018-05-17T04:40:56.771Z,31.77
2018-05-17T04:43:25.001Z,26.80
2018-05-17T04:45:52.482Z,28.47
2018-05-17T04:48:19.923Z,30.50
2018-05-17T04:50:47.381Z,27.33
2018-05-17T04:53:14.839Z,26.67
2018-05-17T04:55:43.047Z,27.73
2018-05-17T04:58:10.507Z,27.43
2018-05-17T05:00:37.979Z,26.30
2018-05-17T05:03:05.455Z,29.30
2018-05-17T05:05:32.917Z,27.80
2018-05-17T05:08:00.377Z,30.87
2018-05-17T05:10:27.828Z,26.93
2018-05-17T05:12:56.054Z,26.20
2018-05-17T05:15:23.504Z,32.57
2018-05-17T05:17:50.959Z,32.90
2018-05-17T05:20:19.178Z,31.37
2018-05-17T05:22:46.628Z,33.03
2018-05-17T05:25:14.112Z,27.97
2018-05-17T05:27:42.309Z,31.80
2018-05-17T05:30:09.759Z,30.50
2018-05-17T05:32:37.232Z,29.77
2018-05-17T05:35:04.697Z,30.77
2018-05-17T05:37:32.180Z,31.37
2018-05-17T05:39:59.603Z,32.13
2018-05-17T05:42:27.832Z,33.17
2018-05-17T05:44:55.305Z,31.20
2018-05-17T05:47:22.774Z,30.90
2018-05-17T05:49:50.223Z,28.47
2018-05-17T05:52:17.695Z,30.97
2018-05-17T05:54:45.148Z,37.57
2018-05-17T05:57:13.366Z,32.13
2018-05-17T05:59:40.821Z,30.40
2018-05-17T06:02:08.277Z,32.47
2018-05-17T06:04:35.746Z,28.20
2018-05-17T06:07:03.192Z,32.70
2018-05-17T06:09:31.618Z,30.27
2018-05-17T06:11:59.099Z,31.20
2018-05-17T06:14:26.559Z,28.07
2018-05-17T06:16:54.025Z,33.13
2018-05-17T06:19:21.504Z,34.37
2018-05-17T06:21:48.956Z,35.63
2018-05-17T06:24:16.420Z,32.57
2018-05-17T06:26:43.866Z,38.00
2018-05-17T06:29:11.322Z,39.43
2018-05-17T06:31:38.775Z,33.37
2018-05-17T06:34:06.278Z,35.47
2018-05-17T06:36:33.751Z,32.63
2018-05-17T06:39:01.996Z,32.57
2018-05-17T06:41:29.447Z,33.03
2018-05-17T06:43:56.995Z,38.53
2018-05-17T06:46:24.357Z,34.63
2018-05-17T06:48:51.812Z,28.93
2018-05-17T06:51:20.107Z,32.13
2018-05-17T06:53:48.331Z,34.87
2018-05-17T06:56:15.812Z,29.40
2018-05-17T06:58:43.248Z,27.10
2018-05-17T07:01:10.713Z,27.93
2018-05-17T07:03:38.156Z,25.23
2018-05-17T07:06:05.616Z,29.47
2018-05-17T07:08:33.149Z,28.37
2018-05-17T07:11:00.620Z,24.47
2018-05-17T07:13:28.073Z,29.67
2018-05-17T07:15:55.532Z,30.93
2018-05-17T07:18:23.159Z,26.90
2018-05-17T07:20:50.447Z,25.40
2018-05-17T07:23:18.819Z,29.43
2018-05-17T07:25:46.279Z,31.13
2018-05-17T07:28:14.022Z,25.07
2018-05-17T07:30:41.472Z,32.27
2018-05-17T07:33:08.915Z,21.67
2018-05-17T07:35:37.144Z,32.10
2018-05-17T07:38:04.614Z,31.53
2018-05-17T07:40:32.055Z,30.80
2018-05-17T07:42:59.507Z,29.80
2018-05-17T07:45:27.736Z,28.47
2018-05-17T07:47:55.192Z,26.10
2018-05-17T07:50:22.655Z,28.63
2018-05-17T07:52:50.107Z,28.87
2018-05-17T07:55:18.327Z,29.47
2018-05-17T07:57:45.783Z,27.87
2018-05-17T08:00:13.265Z,23.47
2018-05-17T08:02:40.736Z,28.83
2018-05-17T08:05:08.187Z,27.87
2018-05-17T08:07:35.635Z,25.77
2018-05-17T08:10:03.859Z,25.63
2018-05-17T08:12:31.322Z,24.13
2018-05-17T08:14:58.774Z,26.60
2018-05-17T08:17:26.289Z,27.50
2018-05-17T08:19:53.741Z,22.73
2018-05-17T08:22:21.197Z,24.47
2018-05-17T08:24:48.642Z,27.47
2018-05-17T08:27:16.871Z,22.13
2018-05-17T08:29:44.343Z,25.53
2018-05-17T08:32:11.799Z,24.90
2018-05-17T08:34:39.243Z,26.27
2018-05-17T08:37:06.701Z,21.70
2018-05-17T08:39:34.924Z,23.90
2018-05-17T08:42:02.384Z,22.00
2018-05-17T08:44:29.949Z,25.30
2018-05-17T08:46:58.169Z,23.83
2018-05-17T08:49:25.628Z,29.23
2018-05-17T08:51:53.083Z,26.10
2018-05-17T08:54:20.584Z,27.30
2018-05-17T08:56:47.979Z,31.20
2018-05-17T08:59:16.199Z,24.10
2018-05-17T09:01:43.654Z,22.63
2018-05-17T09:04:11.884Z,23.83
2018-05-17T09:06:39.345Z,22.90
2018-05-17T09:09:06.810Z,21.50
2018-05-17T09:11:34.259Z,23.10
2018-05-17T09:14:01.713Z,18.87
2018-05-17T09:16:29.927Z,24.33
2018-05-17T09:18:57.383Z,21.13
2018-05-17T09:21:24.846Z,22.57
2018-05-17T09:23:53.069Z,21.30
2018-05-17T09:26:20.511Z,22.77
2018-05-17T09:28:47.968Z,27.40
2018-05-17T09:31:15.425Z,24.30
2018-05-17T09:33:43.643Z,27.07
2018-05-17T09:36:11.093Z,26.77
2018-05-17T09:38:38.557Z,22.47
2018-05-17T09:41:06.018Z,32.47
2018-05-17T09:43:34.240Z,29.93
2018-05-17T09:46:01.683Z,26.10
2018-05-17T09:48:29.144Z,22.10
2018-05-17T09:50:57.362Z,29.50
2018-05-17T09:53:24.820Z,25.37
2018-05-17T09:55:52.263Z,23.60
2018-05-17T09:58:20.497Z,21.50
2018-05-17T10:00:47.961Z,21.27
2018-05-17T10:03:15.420Z,24.23
2018-05-17T10:05:42.867Z,22.47
2018-05-17T10:08:10.320Z,23.20
2018-05-17T10:10:38.543Z,26.30
2018-05-17T10:13:05.995Z,22.43
2018-05-17T10:15:33.520Z,21.63
2018-05-17T10:18:00.912Z,21.30
2018-05-17T10:20:29.129Z,24.57
2018-05-17T10:22:56.656Z,19.67
2018-05-17T10:25:24.803Z,20.40
2018-05-17T10:27:52.248Z,19.00
2018-05-17T10:30:19.731Z,20.10
2018-05-17T10:32:47.187Z,18.47
2018-05-17T10:35:14.686Z,19.87
2018-05-17T10:37:42.112Z,21.40
2018-05-17T10:40:11.167Z,16.07
2018-05-17T10:42:38.624Z,21.00
2018-05-17T10:45:06.088Z,20.67
2018-05-17T10:47:33.542Z,19.83
2018-05-17T10:50:01.003Z,21.97
2018-05-17T10:52:28.453Z,18.80
2018-05-17T10:54:56.678Z,17.47
2018-05-17T10:57:24.124Z,17.00
2018-05-17T10:59:51.596Z,21.23
2018-05-17T11:02:19.065Z,21.00
2018-05-17T11:04:46.508Z,20.13
2018-05-17T11:07:14.745Z,19.30
2018-05-17T11:09:42.195Z,18.20
2018-05-17T11:12:09.736Z,18.80
2018-05-17T11:14:37.863Z,18.40
2018-05-17T11:17:05.320Z,20.03
2018-05-17T11:19:32.777Z,22.83
2018-05-17T11:22:00.269Z,22.03
2018-05-17T11:24:27.712Z,25.73
2018-05-17T11:26:55.184Z,21.77
2018-05-17T11:29:23.395Z,21.60
2018-05-17T11:31:50.861Z,22.17
2018-05-17T11:34:18.311Z,24.80
2018-05-17T11:36:45.784Z,25.10
2018-05-17T11:39:13.227Z,25.47
2018-05-17T11:41:41.468Z,18.10
2018-05-17T11:44:08.997Z,20.17
2018-05-17T11:46:36.383Z,20.90
2018-05-17T11:49:03.831Z,22.30
2018-05-17T11:51:32.067Z,19.63
2018-05-17T11:53:59.517Z,18.73
2018-05-17T11:56:26.980Z,21.00
2018-05-17T11:58:54.427Z,21.83
2018-05-17T12:01:22.677Z,16.40
2018-05-17T12:03:50.111Z,16.80
2018-05-17T12:06:17.566Z,25.53
2018-05-17T12:11:36.390Z,25.33
2018-05-17T12:14:03.844Z,27.20
2018-05-17T12:16:31.317Z,29.17
2018-05-17T12:18:58.763Z,29.03
2018-05-17T12:21:26.211Z,24.37
2018-05-17T12:23:54.444Z,30.30
2018-05-17T12:26:21.898Z,23.20
2018-05-17T12:28:50.124Z,25.33
2018-05-17T12:31:17.571Z,26.17
2018-05-17T12:33:45.040Z,25.90
2018-05-17T12:36:12.492Z,25.27
2018-05-17T12:38:39.953Z,26.50
2018-05-17T12:41:07.406Z,27.87
2018-05-17T12:43:35.618Z,28.37
2018-05-17T12:46:03.076Z,28.90
2018-05-17T12:48:30.532Z,28.57
2018-05-17T12:50:58.832Z,22.27
2018-05-17T12:53:26.205Z,23.43
2018-05-17T12:55:53.688Z,23.07
2018-05-17T12:58:21.161Z,24.73
2018-05-17T13:00:48.613Z,24.97
2018-05-17T13:03:16.071Z,22.77
2018-05-17T13:05:44.291Z,24.17
2018-05-17T13:08:11.752Z,21.07
2018-05-17T13:10:39.198Z,28.47
2018-05-17T13:13:07.489Z,29.00
2018-05-17T13:15:34.872Z,28.00
2018-05-17T13:18:02.362Z,28.27
2018-05-17T13:20:29.799Z,26.87
2018-05-17T13:22:57.272Z,27.50
2018-05-17T13:25:24.732Z,26.30
2018-05-17T13:27:52.940Z,23.37
2018-05-17T13:30:20.498Z,21.50
2018-05-17T13:32:47.848Z,24.07
2018-05-17T13:35:16.077Z,23.73
2018-05-17T13:37:43.533Z,23.83
2018-05-17T13:40:11.000Z,22.87
2018-05-17T13:42:38.471Z,28.17
2018-05-17T13:45:05.938Z,26.73
2018-05-17T13:47:33.452Z,28.27
2018-05-17T13:50:00.865Z,27.20
2018-05-17T13:52:28.311Z,30.40
2018-05-17T13:54:56.541Z,27.60
2018-05-17T13:57:23.987Z,25.17
2018-05-17T13:59:51.443Z,23.67
2018-05-17T14:02:18.963Z,27.70
2018-05-17T14:04:47.131Z,26.93
2018-05-17T14:07:14.580Z,29.80
2018-05-17T14:09:42.112Z,30.53
2018-05-17T14:12:09.506Z,31.63
2018-05-17T14:14:37.731Z,29.90
2018-05-17T14:17:05.183Z,32.30
2018-05-17T14:19:32.645Z,34.40
2018-05-17T14:22:00.155Z,37.57
2018-05-17T14:24:27.624Z,32.03
2018-05-17T14:26:55.082Z,33.00
2018-05-17T14:29:22.536Z,35.17
2018-05-17T14:31:50.091Z,31.77
2018-05-17T14:34:17.440Z,28.23
2018-05-17T14:36:45.672Z,34.97
2018-05-17T14:39:13.133Z,33.33
2018-05-17T14:41:40.628Z,31.20
2018-05-17T14:44:08.071Z,28.90
2018-05-17T14:46:35.564Z,31.63
2018-05-17T14:49:03.103Z,28.23
2018-05-17T14:51:30.564Z,27.57
2018-05-17T14:53:58.017Z,28.93
2018-05-17T14:56:25.476Z,27.33
2018-05-17T14:58:53.689Z,25.93
2018-05-17T15:01:21.170Z,32.43
2018-05-17T15:03:48.605Z,29.07
2018-05-17T15:06:16.832Z,25.93
2018-05-17T15:08:44.403Z,29.47
2018-05-17T15:11:14.757Z,28.70
2018-05-17T15:13:39.211Z,25.70
2018-05-17T15:16:07.425Z,29.77
2018-05-17T15:18:35.002Z,30.97
2018-05-17T15:21:02.461Z,25.13
2018-05-17T15:23:29.916Z,28.37
2018-05-17T15:25:57.369Z,23.90
2018-05-17T15:28:25.600Z,29.60
2018-05-17T16:52:51.053Z,26.10
2018-05-17T16:55:18.399Z,20.43
2018-05-17T16:57:45.853Z,23.07
2018-05-17T17:00:14.078Z,17.60
2018-05-17T17:02:41.532Z,17.87
2018-05-17T17:05:09.117Z,22.80
2018-05-17T17:07:36.604Z,24.83
2018-05-17T17:10:04.005Z,19.57
2018-05-17T17:12:33.826Z,18.73
2018-05-17T17:15:01.272Z,16.17
2018-05-17T17:17:28.720Z,20.07
2018-05-17T17:19:56.172Z,17.23
2018-05-17T17:22:23.626Z,19.13
2018-05-17T17:24:51.117Z,19.20
2018-05-17T17:27:18.569Z,21.00
2018-05-17T17:29:46.037Z,17.87
2018-05-17T17:32:13.476Z,18.50
2018-05-17T17:34:41.096Z,14.70
2018-05-17T17:37:08.530Z,17.30
2018-05-17T17:39:36.761Z,17.97
2018-05-17T17:42:04.206Z,14.47
2018-05-17T17:44:31.660Z,18.43
2018-05-17T17:46:59.126Z,23.40
2018-05-17T17:49:27.337Z,18.77
2018-05-17T17:51:54.796Z,17.10
2018-05-17T17:54:22.259Z,18.83
2018-05-17T17:56:50.472Z,14.53
2018-05-17T17:59:17.942Z,15.40
2018-05-17T18:01:45.398Z,16.90
2018-05-17T18:04:12.844Z,17.33
2018-05-17T18:06:41.065Z,17.40
2018-05-17T18:09:08.513Z,19.90
2018-05-17T18:11:35.970Z,17.40
2018-05-17T18:14:04.183Z,16.37
2018-05-17T18:19:05.491Z,15.77
2018-05-17T18:21:32.967Z,15.80
2018-05-17T18:24:00.476Z,16.37
2018-05-17T18:26:27.876Z,12.60
2018-05-17T18:28:55.323Z,17.93
2018-05-17T18:31:22.784Z,12.73
2018-05-17T18:33:51.083Z,19.40
2018-05-17T18:36:18.453Z,16.10
2018-05-17T18:38:45.895Z,20.33
2018-05-17T18:41:14.656Z,16.67
2018-05-17T18:43:42.132Z,13.83
2018-05-17T18:46:09.604Z,15.70
2018-05-17T18:53:27.297Z,13.30
2018-05-17T18:55:54.811Z,17.37
2018-05-17T18:58:22.201Z,14.80
2018-05-17T19:00:49.678Z,16.07
2018-05-17T19:03:17.128Z,15.23
2018-05-17T19:05:44.593Z,13.77
2018-05-17T19:08:12.801Z,18.47
2018-05-17T19:10:40.253Z,18.60
2018-05-17T19:13:07.711Z,15.57
2018-05-17T19:15:35.928Z,13.77
2018-05-17T19:18:03.390Z,16.83
2018-05-17T19:20:30.907Z,17.40
2018-05-17T19:22:58.296Z,15.60
2018-05-17T19:25:26.515Z,19.07
2018-05-17T19:27:53.972Z,14.40
2018-05-17T19:30:21.415Z,15.80
2018-05-17T19:32:49.639Z,13.87
2018-05-17T19:35:17.084Z,15.80
2018-05-17T19:37:45.299Z,16.27
2018-05-17T19:40:12.766Z,15.53
2018-05-17T19:42:40.220Z,13.20
2018-05-17T19:45:07.676Z,13.90
2018-05-17T19:47:35.982Z,16.60
2018-05-17T19:50:03.427Z,16.63
2018-05-17T19:52:32.624Z,19.60
2018-05-17T19:55:00.831Z,18.47
2018-05-17T19:57:28.294Z,15.77
2018-05-17T19:59:56.544Z,16.40
2018-05-17T20:02:23.989Z,15.73
2018-05-17T20:04:51.480Z,19.70
2018-05-17T20:07:18.904Z,16.00
2018-05-17T20:09:46.356Z,18.70
2018-05-17T20:12:14.576Z,14.83
2018-05-17T20:14:42.031Z,18.43
2018-05-17T20:17:09.531Z,15.33
2018-05-17T20:19:36.984Z,13.10
2018-05-17T20:22:04.459Z,14.73
2018-05-17T20:24:31.959Z,14.97
2018-05-17T20:26:59.496Z,13.90
2018-05-17T20:29:26.947Z,13.27
2018-05-17T20:31:54.396Z,14.57
2018-05-17T20:34:22.615Z,16.77
2018-05-17T20:36:50.064Z,13.20
2018-05-17T20:39:17.525Z,16.17
2018-05-17T20:41:45.736Z,17.27
2018-05-17T20:44:13.198Z,16.67
2018-05-17T20:46:40.648Z,16.07
2018-05-17T20:49:08.899Z,11.37
2018-05-17T20:51:36.347Z,10.30
2018-05-17T20:54:03.808Z,18.10
2018-05-17T20:56:31.253Z,14.23
2018-05-17T20:58:58.700Z,17.87
2018-05-17T21:01:26.925Z,17.60
2018-05-17T21:03:54.368Z,20.37
2018-05-17T21:06:21.828Z,12.40
2018-05-17T21:08:50.035Z,13.47
2018-05-17T21:11:17.501Z,12.23
2018-05-17T21:13:45.006Z,17.83
2018-05-17T21:16:12.484Z,18.17
2018-05-17T21:18:39.921Z,16.43
2018-05-17T21:21:07.382Z,17.53
2018-05-17T21:23:34.829Z,12.33
2018-05-17T21:26:03.052Z,18.47
2018-05-17T21:28:30.497Z,13.93
2018-05-17T21:30:57.957Z,17.50
2018-05-17T21:33:26.172Z,12.40
2018-05-17T21:35:53.632Z,14.73
2018-05-17T21:38:21.077Z,19.43
2018-05-17T21:40:49.312Z,16.63
2018-05-17T21:43:16.764Z,14.80
2018-05-17T21:45:44.221Z,17.30
2018-05-17T21:48:11.662Z,20.27
2018-05-17T21:50:39.879Z,16.00
2018-05-17T21:53:07.401Z,23.33
2018-05-17T21:55:35.678Z,14.90
2018-05-17T21:58:03.016Z,14.13
2018-05-17T22:00:30.463Z,13.57
2018-05-17T22:02:57.937Z,16.30
2018-05-17T22:05:25.388Z,19.07
2018-05-17T22:07:53.625Z,12.80
2018-05-17T22:10:21.080Z,17.27
2018-05-17T22:12:48.530Z,15.07
2018-05-17T22:15:15.980Z,15.27
2018-05-17T22:17:44.197Z,12.23
2018-05-17T22:20:11.643Z,14.67
2018-05-17T22:22:39.108Z,17.33
2018-05-17T22:25:07.319Z,13.93
2018-05-17T22:27:34.787Z,13.03
2018-05-17T22:30:02.300Z,15.93
2018-05-17T22:32:29.759Z,17.37
2018-05-17T22:34:57.235Z,15.13
2018-05-17T22:37:24.703Z,16.30
2018-05-17T22:39:52.152Z,14.57
2018-05-17T22:42:19.603Z,17.60
2018-05-17T22:44:47.056Z,20.13
2018-05-17T22:47:14.520Z,15.30
2018-05-17T22:49:41.968Z,17.57
2018-05-17T22:52:09.418Z,14.47
2018-05-17T22:54:36.858Z,14.40
2018-05-17T22:57:12.144Z,20.90
2018-05-17T22:59:39.585Z,14.47
2018-05-17T23:02:07.044Z,13.73
2018-05-17T23:04:34.496Z,15.00
2018-05-17T23:07:01.957Z,14.83
2018-05-17T23:09:29.408Z,17.13
2018-05-17T23:11:57.640Z,16.17
2018-05-17T23:14:25.076Z,15.73
2018-05-17T23:16:52.524Z,16.13
2018-05-17T23:19:19.980Z,18.13
2018-05-17T23:21:47.423Z,14.57
2018-05-17T23:24:14.884Z,13.33
2018-05-17T23:26:42.410Z,18.43
2018-05-17T23:29:10.623Z,13.90
2018-05-17T23:31:38.067Z,16.50
2018-05-17T23:34:06.293Z,16.10
2018-05-17T23:36:33.745Z,18.23
2018-05-17T23:39:01.192Z,15.63
2018-05-17T23:41:35.272Z,14.50
2018-05-17T23:44:02.728Z,12.33
2018-05-17T23:46:30.167Z,17.10
2018-05-17T23:48:57.636Z,11.83
2018-05-17T23:51:25.075Z,14.60
2018-05-17T23:53:52.539Z,14.57
2018-05-17T23:56:19.984Z,19.73
2018-05-17T23:58:47.462Z,18.37
